sensor_id;sensor_type;location;lat;lon;timestamp;temperature;humidity
2024;DHT22;1016;48.770;9.154;2023-08-30T00:00:58;18.80;99.90
2024;DHT22;1016;48.770;9.154;2023-08-30T00:03:23;18.80;99.90
2024;DHT22;1016;48.770;9.154;2023-08-30T00:05:49;19.00;99.90
2024;DHT22;1016;48.770;9.154;2023-08-30T00:08:14;18.80;99.90
2024;DHT22;1016;48.770;9.154;2023-08-30T00:10:44;18.80;99.90
2024;DHT22;1016;48.770;9.154;2023-08-30T00:13:10;18.80;99.90
2024;DHT22;1016;48.770;9.154;2023-08-30T00:15:35;18.80;99.90
2024;DHT22;1016;48.770;9.154;2023-08-30T00:18:01;18.80;99.90
2024;DHT22;1016;48.770;9.154;2023-08-30T00:20:26;18.80;99.90
2024;DHT22;1016;48.770;9.154;2023-08-30T00:22:52;18.80;99.90
2024;DHT22;1016;48.770;9.154;2023-08-30T00:25:18;18.80;99.90
2024;DHT22;1016;48.770;9.154;2023-08-30T00:27:43;18.70;99.90
2024;DHT22;1016;48.770;9.154;2023-08-30T00:30:09;18.70;99.90
2024;DHT22;1016;48.770;9.154;2023-08-30T00:32:35;18.70;99.90
2024;DHT22;1016;48.770;9.154;2023-08-30T00:35:01;18.70;99.90
2024;DHT22;1016;48.770;9.154;2023-08-30T00:37:27;18.70;99.90
2024;DHT22;1016;48.770;9.154;2023-08-30T00:39:52;18.70;99.90
2024;DHT22;1016;48.770;9.154;2023-08-30T00:42:18;18.70;99.90
2024;DHT22;1016;48.770;9.154;2023-08-30T00:44:44;18.70;99.90
2024;DHT22;1016;48.770;9.154;2023-08-30T00:47:09;18.70;99.90
2024;DHT22;1016;48.770;9.154;2023-08-30T00:49:35;18.70;99.90
2024;DHT22;1016;48.770;9.154;2023-08-30T00:52:03;18.70;99.90
2024;DHT22;1016;48.770;9.154;2023-08-30T00:54:31;18.70;99.90
2024;DHT22;1016;48.770;9.154;2023-08-30T00:56:57;18.70;99.90
2024;DHT22;1016;48.770;9.154;2023-08-30T00:59:24;18.70;99.90
2024;DHT22;1016;48.770;9.154;2023-08-30T01:01:51;18.70;99.90
2024;DHT22;1016;48.770;9.154;2023-08-30T01:04:16;18.70;99.90
2024;DHT22;1016;48.770;9.154;2023-08-30T01:06:43;18.80;99.90
2024;DHT22;1016;48.770;9.154;2023-08-30T01:09:09;18.80;99.90
2024;DHT22;1016;48.770;9.154;2023-08-30T01:14:43;18.70;99.90
2024;DHT22;1016;48.770;9.154;2023-08-30T01:17:11;18.70;99.90
2024;DHT22;1016;48.770;9.154;2023-08-30T01:19:57;18.70;99.90
2024;DHT22;1016;48.770;9.154;2023-08-30T01:28:03;18.70;99.90
2024;DHT22;1016;48.770;9.154;2023-08-30T01:30:32;18.70;99.90
2024;DHT22;1016;48.770;9.154;2023-08-30T01:33:02;18.70;99.90
2024;DHT22;1016;48.770;9.154;2023-08-30T01:35:30;18.70;99.90
2024;DHT22;1016;48.770;9.154;2023-08-30T01:37:59;18.70;99.90
2024;DHT22;1016;48.770;9.154;2023-08-30T01:40:27;18.70;99.90
2024;DHT22;1016;48.770;9.154;2023-08-30T01:42:54;18.70;99.90
2024;DHT22;1016;48.770;9.154;2023-08-30T01:45:21;18.70;99.90
2024;DHT22;1016;48.770;9.154;2023-08-30T01:47:48;18.70;99.90
2024;DHT22;1016;48.770;9.154;2023-08-30T01:50:15;18.60;99.90
2024;DHT22;1016;48.770;9.154;2023-08-30T01:52:41;18.70;99.90
2024;DHT22;1016;48.770;9.154;2023-08-30T01:55:08;18.60;99.90
2024;DHT22;1016;48.770;9.154;2023-08-30T01:57:34;18.80;99.90
2024;DHT22;1016;48.770;9.154;2023-08-30T02:00:00;18.70;99.90
2024;DHT22;1016;48.770;9.154;2023-08-30T02:02:29;18.80;99.90
2024;DHT22;1016;48.770;9.154;2023-08-30T02:04:54;18.60;99.90
2024;DHT22;1016;48.770;9.154;2023-08-30T02:07:46;18.70;99.90
2024;DHT22;1016;48.770;9.154;2023-08-30T02:10:11;18.60;99.90
2024;DHT22;1016;48.770;9.154;2023-08-30T02:12:46;18.60;99.90
2024;DHT22;1016;48.770;9.154;2023-08-30T02:15:13;18.60;99.90
2024;DHT22;1016;48.770;9.154;2023-08-30T02:17:39;18.70;99.90
2024;DHT22;1016;48.770;9.154;2023-08-30T02:20:06;18.50;99.90
2024;DHT22;1016;48.770;9.154;2023-08-30T02:22:32;18.60;99.90
2024;DHT22;1016;48.770;9.154;2023-08-30T02:24:59;18.70;99.90
2024;DHT22;1016;48.770;9.154;2023-08-30T02:27:24;18.60;99.90
2024;DHT22;1016;48.770;9.154;2023-08-30T02:29:50;18.60;99.90
2024;DHT22;1016;48.770;9.154;2023-08-30T02:32:16;18.70;99.90
2024;DHT22;1016;48.770;9.154;2023-08-30T02:34:48;18.80;99.90
2024;DHT22;1016;48.770;9.154;2023-08-30T02:37:14;18.50;99.90
2024;DHT22;1016;48.770;9.154;2023-08-30T02:39:40;18.50;99.90
2024;DHT22;1016;48.770;9.154;2023-08-30T02:42:06;18.70;99.90
2024;DHT22;1016;48.770;9.154;2023-08-30T02:44:32;18.50;99.90
2024;DHT22;1016;48.770;9.154;2023-08-30T02:46:57;18.50;99.90
2024;DHT22;1016;48.770;9.154;2023-08-30T02:49:23;18.50;99.90
2024;DHT22;1016;48.770;9.154;2023-08-30T02:51:48;18.50;99.90
2024;DHT22;1016;48.770;9.154;2023-08-30T02:54:14;18.40;99.90
2024;DHT22;1016;48.770;9.154;2023-08-30T02:56:43;18.40;99.90
2024;DHT22;1016;48.770;9.154;2023-08-30T02:59:10;18.60;99.90
2024;DHT22;1016;48.770;9.154;2023-08-30T03:01:36;18.40;99.90
2024;DHT22;1016;48.770;9.154;2023-08-30T03:04:02;18.20;99.90
2024;DHT22;1016;48.770;9.154;2023-08-30T03:06:29;18.40;99.90
2024;DHT22;1016;48.770;9.154;2023-08-30T03:08:55;18.40;99.90
2024;DHT22;1016;48.770;9.154;2023-08-30T03:11:20;18.40;99.90
2024;DHT22;1016;48.770;9.154;2023-08-30T03:13:46;18.60;99.90
2024;DHT22;1016;48.770;9.154;2023-08-30T03:16:12;18.40;99.90
2024;DHT22;1016;48.770;9.154;2023-08-30T03:18:39;18.50;99.90
2024;DHT22;1016;48.770;9.154;2023-08-30T03:21:04;18.40;99.90
2024;DHT22;1016;48.770;9.154;2023-08-30T03:23:31;18.40;99.90
2024;DHT22;1016;48.770;9.154;2023-08-30T03:25:57;18.40;99.90
2024;DHT22;1016;48.770;9.154;2023-08-30T03:28:23;18.50;99.90
2024;DHT22;1016;48.770;9.154;2023-08-30T03:30:49;18.40;99.90
2024;DHT22;1016;48.770;9.154;2023-08-30T03:33:14;18.40;99.90
2024;DHT22;1016;48.770;9.154;2023-08-30T03:35:40;18.40;99.90
2024;DHT22;1016;48.770;9.154;2023-08-30T03:38:05;18.50;99.90
2024;DHT22;1016;48.770;9.154;2023-08-30T03:40:31;18.40;99.90
2024;DHT22;1016;48.770;9.154;2023-08-30T03:42:56;18.30;99.90
2024;DHT22;1016;48.770;9.154;2023-08-30T03:45:22;18.40;99.90
2024;DHT22;1016;48.770;9.154;2023-08-30T03:47:48;18.40;99.90
2024;DHT22;1016;48.770;9.154;2023-08-30T03:50:13;18.40;99.90
2024;DHT22;1016;48.770;9.154;2023-08-30T03:52:39;18.40;99.90
2024;DHT22;1016;48.770;9.154;2023-08-30T03:55:05;18.50;99.90
2024;DHT22;1016;48.770;9.154;2023-08-30T03:57:31;18.30;99.90
2024;DHT22;1016;48.770;9.154;2023-08-30T03:59:57;18.40;99.90
2024;DHT22;1016;48.770;9.154;2023-08-30T04:02:22;18.30;99.90
2024;DHT22;1016;48.770;9.154;2023-08-30T04:04:48;18.50;99.90
2024;DHT22;1016;48.770;9.154;2023-08-30T04:07:15;18.30;99.90
2024;DHT22;1016;48.770;9.154;2023-08-30T04:09:41;18.30;99.90
2024;DHT22;1016;48.770;9.154;2023-08-30T04:12:06;18.40;99.90
2024;DHT22;1016;48.770;9.154;2023-08-30T04:14:32;18.40;99.90
2024;DHT22;1016;48.770;9.154;2023-08-30T04:16:58;18.40;99.90
2024;DHT22;1016;48.770;9.154;2023-08-30T04:19:23;18.40;99.90
2024;DHT22;1016;48.770;9.154;2023-08-30T04:21:49;18.30;99.90
2024;DHT22;1016;48.770;9.154;2023-08-30T04:24:15;18.40;99.90
2024;DHT22;1016;48.770;9.154;2023-08-30T04:26:41;18.50;99.90
2024;DHT22;1016;48.770;9.154;2023-08-30T04:29:06;18.50;99.90
2024;DHT22;1016;48.770;9.154;2023-08-30T04:31:32;18.50;99.90
2024;DHT22;1016;48.770;9.154;2023-08-30T04:33:58;18.40;99.90
2024;DHT22;1016;48.770;9.154;2023-08-30T04:36:23;18.40;99.90
2024;DHT22;1016;48.770;9.154;2023-08-30T04:38:49;18.40;99.90
2024;DHT22;1016;48.770;9.154;2023-08-30T04:41:14;18.50;99.90
2024;DHT22;1016;48.770;9.154;2023-08-30T04:43:40;18.30;99.90
2024;DHT22;1016;48.770;9.154;2023-08-30T04:46:05;18.40;99.90
2024;DHT22;1016;48.770;9.154;2023-08-30T04:48:31;18.60;99.90
2024;DHT22;1016;48.770;9.154;2023-08-30T04:51:04;18.30;99.90
2024;DHT22;1016;48.770;9.154;2023-08-30T04:53:30;18.80;99.90
2024;DHT22;1016;48.770;9.154;2023-08-30T04:55:55;18.30;99.90
2024;DHT22;1016;48.770;9.154;2023-08-30T05:00:47;18.30;99.90
2024;DHT22;1016;48.770;9.154;2023-08-30T05:03:12;18.30;99.90
2024;DHT22;1016;48.770;9.154;2023-08-30T05:05:38;18.00;99.90
2024;DHT22;1016;48.770;9.154;2023-08-30T05:08:03;18.20;99.90
2024;DHT22;1016;48.770;9.154;2023-08-30T05:10:29;18.20;99.90
2024;DHT22;1016;48.770;9.154;2023-08-30T05:12:55;18.30;99.90
2024;DHT22;1016;48.770;9.154;2023-08-30T05:15:21;18.30;99.90
2024;DHT22;1016;48.770;9.154;2023-08-30T05:17:47;18.10;99.90
2024;DHT22;1016;48.770;9.154;2023-08-30T05:20:13;18.00;99.90
2024;DHT22;1016;48.770;9.154;2023-08-30T05:22:38;18.30;99.90
2024;DHT22;1016;48.770;9.154;2023-08-30T05:25:04;18.20;99.90
2024;DHT22;1016;48.770;9.154;2023-08-30T05:27:30;18.10;99.90
2024;DHT22;1016;48.770;9.154;2023-08-30T05:29:55;18.10;99.90
2024;DHT22;1016;48.770;9.154;2023-08-30T05:32:21;18.20;99.90
2024;DHT22;1016;48.770;9.154;2023-08-30T05:34:47;18.30;99.90
2024;DHT22;1016;48.770;9.154;2023-08-30T05:37:13;18.10;99.90
2024;DHT22;1016;48.770;9.154;2023-08-30T05:39:39;18.10;99.90
2024;DHT22;1016;48.770;9.154;2023-08-30T05:42:04;18.10;99.90
2024;DHT22;1016;48.770;9.154;2023-08-30T05:44:30;18.10;99.90
2024;DHT22;1016;48.770;9.154;2023-08-30T05:46:56;18.30;99.90
2024;DHT22;1016;48.770;9.154;2023-08-30T05:49:21;18.30;99.90
2024;DHT22;1016;48.770;9.154;2023-08-30T05:51:47;18.10;99.90
2024;DHT22;1016;48.770;9.154;2023-08-30T05:54:13;18.20;99.90
2024;DHT22;1016;48.770;9.154;2023-08-30T05:56:40;18.20;99.90
2024;DHT22;1016;48.770;9.154;2023-08-30T05:59:07;18.20;99.90
2024;DHT22;1016;48.770;9.154;2023-08-30T06:01:32;18.30;99.90
2024;DHT22;1016;48.770;9.154;2023-08-30T06:03:58;18.20;99.90
2024;DHT22;1016;48.770;9.154;2023-08-30T06:06:24;18.20;99.90
2024;DHT22;1016;48.770;9.154;2023-08-30T06:08:49;18.40;99.90
2024;DHT22;1016;48.770;9.154;2023-08-30T06:11:17;18.20;99.90
2024;DHT22;1016;48.770;9.154;2023-08-30T06:13:45;18.40;99.90
2024;DHT22;1016;48.770;9.154;2023-08-30T06:16:10;18.30;99.90
2024;DHT22;1016;48.770;9.154;2023-08-30T06:18:36;18.30;99.90
2024;DHT22;1016;48.770;9.154;2023-08-30T06:21:04;18.40;99.90
2024;DHT22;1016;48.770;9.154;2023-08-30T06:23:30;18.40;99.90
2024;DHT22;1016;48.770;9.154;2023-08-30T06:25:56;18.30;99.90
2024;DHT22;1016;48.770;9.154;2023-08-30T06:28:22;18.20;99.90
2024;DHT22;1016;48.770;9.154;2023-08-30T06:30:48;18.40;99.90
2024;DHT22;1016;48.770;9.154;2023-08-30T06:33:14;18.40;99.90
2024;DHT22;1016;48.770;9.154;2023-08-30T06:35:39;18.40;99.90
2024;DHT22;1016;48.770;9.154;2023-08-30T06:38:05;18.50;99.90
2024;DHT22;1016;48.770;9.154;2023-08-30T06:40:32;18.40;99.90
2024;DHT22;1016;48.770;9.154;2023-08-30T06:42:58;18.60;99.90
2024;DHT22;1016;48.770;9.154;2023-08-30T06:45:24;18.40;99.90
2024;DHT22;1016;48.770;9.154;2023-08-30T06:47:50;18.40;99.90
2024;DHT22;1016;48.770;9.154;2023-08-30T06:50:22;18.40;99.90
2024;DHT22;1016;48.770;9.154;2023-08-30T06:52:47;18.40;99.90
2024;DHT22;1016;48.770;9.154;2023-08-30T06:55:14;18.50;99.90
2024;DHT22;1016;48.770;9.154;2023-08-30T06:57:47;18.50;99.90
2024;DHT22;1016;48.770;9.154;2023-08-30T07:00:14;18.60;99.90
2024;DHT22;1016;48.770;9.154;2023-08-30T07:02:40;18.50;99.90
2024;DHT22;1016;48.770;9.154;2023-08-30T07:05:06;18.60;99.90
2024;DHT22;1016;48.770;9.154;2023-08-30T07:07:32;18.50;99.90
2024;DHT22;1016;48.770;9.154;2023-08-30T07:10:05;18.50;99.90
2024;DHT22;1016;48.770;9.154;2023-08-30T07:12:34;18.50;99.90
2024;DHT22;1016;48.770;9.154;2023-08-30T07:14:59;18.60;99.90
2024;DHT22;1016;48.770;9.154;2023-08-30T07:17:25;18.70;99.90
2024;DHT22;1016;48.770;9.154;2023-08-30T07:19:51;18.50;99.90
2024;DHT22;1016;48.770;9.154;2023-08-30T07:22:17;18.60;99.90
2024;DHT22;1016;48.770;9.154;2023-08-30T07:24:43;18.70;99.90
2024;DHT22;1016;48.770;9.154;2023-08-30T07:27:09;18.60;99.90
2024;DHT22;1016;48.770;9.154;2023-08-30T07:29:34;18.60;99.90
2024;DHT22;1016;48.770;9.154;2023-08-30T07:32:00;18.70;99.90
2024;DHT22;1016;48.770;9.154;2023-08-30T07:34:26;18.70;99.90
2024;DHT22;1016;48.770;9.154;2023-08-30T07:36:54;18.70;99.90
2024;DHT22;1016;48.770;9.154;2023-08-30T07:39:21;18.80;99.90
2024;DHT22;1016;48.770;9.154;2023-08-30T07:41:47;18.70;99.90
2024;DHT22;1016;48.770;9.154;2023-08-30T07:44:12;18.80;99.90
2024;DHT22;1016;48.770;9.154;2023-08-30T07:46:38;18.70;99.90
2024;DHT22;1016;48.770;9.154;2023-08-30T07:49:04;18.60;99.90
2024;DHT22;1016;48.770;9.154;2023-08-30T07:51:29;18.70;99.90
2024;DHT22;1016;48.770;9.154;2023-08-30T07:53:56;18.60;99.90
2024;DHT22;1016;48.770;9.154;2023-08-30T07:56:21;18.70;99.90
2024;DHT22;1016;48.770;9.154;2023-08-30T07:58:47;18.60;99.90
2024;DHT22;1016;48.770;9.154;2023-08-30T08:01:16;18.60;99.90
2024;DHT22;1016;48.770;9.154;2023-08-30T08:03:42;18.60;99.90
2024;DHT22;1016;48.770;9.154;2023-08-30T08:06:08;18.60;99.90
2024;DHT22;1016;48.770;9.154;2023-08-30T08:08:33;18.60;99.90
2024;DHT22;1016;48.770;9.154;2023-08-30T08:11:02;18.70;99.90
2024;DHT22;1016;48.770;9.154;2023-08-30T08:13:29;18.40;99.90
2024;DHT22;1016;48.770;9.154;2023-08-30T08:15:57;18.60;99.90
2024;DHT22;1016;48.770;9.154;2023-08-30T08:18:24;18.60;99.90
2024;DHT22;1016;48.770;9.154;2023-08-30T08:20:53;18.40;99.90
2024;DHT22;1016;48.770;9.154;2023-08-30T08:23:25;18.60;99.90
2024;DHT22;1016;48.770;9.154;2023-08-30T08:26:06;18.60;99.90
2024;DHT22;1016;48.770;9.154;2023-08-30T08:28:33;18.60;99.90
2024;DHT22;1016;48.770;9.154;2023-08-30T08:31:00;18.60;99.90
2024;DHT22;1016;48.770;9.154;2023-08-30T08:33:32;18.60;99.90
2024;DHT22;1016;48.770;9.154;2023-08-30T08:36:01;18.60;99.90
2024;DHT22;1016;48.770;9.154;2023-08-30T08:38:27;18.80;99.90
2024;DHT22;1016;48.770;9.154;2023-08-30T08:41:05;18.60;99.90
2024;DHT22;1016;48.770;9.154;2023-08-30T08:43:50;18.80;99.90
2024;DHT22;1016;48.770;9.154;2023-08-30T08:46:17;18.60;99.90
2024;DHT22;1016;48.770;9.154;2023-08-30T08:48:45;18.60;99.90
2024;DHT22;1016;48.770;9.154;2023-08-30T08:51:12;18.60;99.90
2024;DHT22;1016;48.770;9.154;2023-08-30T08:53:39;18.60;99.90
2024;DHT22;1016;48.770;9.154;2023-08-30T08:56:06;18.70;99.90
2024;DHT22;1016;48.770;9.154;2023-08-30T08:58:35;18.60;99.90
2024;DHT22;1016;48.770;9.154;2023-08-30T09:01:03;18.70;99.90
2024;DHT22;1016;48.770;9.154;2023-08-30T09:03:29;18.70;99.90
2024;DHT22;1016;48.770;9.154;2023-08-30T09:05:55;18.70;99.90
2024;DHT22;1016;48.770;9.154;2023-08-30T09:08:21;18.70;99.90
2024;DHT22;1016;48.770;9.154;2023-08-30T09:10:47;18.70;99.90
2024;DHT22;1016;48.770;9.154;2023-08-30T09:13:15;18.70;99.90
2024;DHT22;1016;48.770;9.154;2023-08-30T09:15:41;18.70;99.90
2024;DHT22;1016;48.770;9.154;2023-08-30T09:18:16;18.70;99.90
2024;DHT22;1016;48.770;9.154;2023-08-30T09:20:42;18.80;99.90
2024;DHT22;1016;48.770;9.154;2023-08-30T09:23:21;18.80;99.90
2024;DHT22;1016;48.770;9.154;2023-08-30T09:25:47;18.80;99.90
2024;DHT22;1016;48.770;9.154;2023-08-30T09:28:19;18.80;99.90
2024;DHT22;1016;48.770;9.154;2023-08-30T09:30:49;18.80;99.90
2024;DHT22;1016;48.770;9.154;2023-08-30T09:33:15;18.80;99.90
2024;DHT22;1016;48.770;9.154;2023-08-30T09:35:44;18.80;99.90
2024;DHT22;1016;48.770;9.154;2023-08-30T09:38:19;18.80;99.90
2024;DHT22;1016;48.770;9.154;2023-08-30T09:40:45;18.80;99.90
2024;DHT22;1016;48.770;9.154;2023-08-30T09:43:12;18.80;99.90
2024;DHT22;1016;48.770;9.154;2023-08-30T09:45:38;18.80;99.90
2024;DHT22;1016;48.770;9.154;2023-08-30T09:48:05;18.80;99.90
2024;DHT22;1016;48.770;9.154;2023-08-30T09:50:34;18.90;99.90
2024;DHT22;1016;48.770;9.154;2023-08-30T09:53:07;18.90;99.90
2024;DHT22;1016;48.770;9.154;2023-08-30T09:55:33;18.90;99.90
2024;DHT22;1016;48.770;9.154;2023-08-30T09:58:01;18.90;99.90
2024;DHT22;1016;48.770;9.154;2023-08-30T10:00:27;18.90;99.90
2024;DHT22;1016;48.770;9.154;2023-08-30T10:02:54;19.00;99.90
2024;DHT22;1016;48.770;9.154;2023-08-30T10:05:21;19.00;99.90
2024;DHT22;1016;48.770;9.154;2023-08-30T10:07:48;19.00;99.90
2024;DHT22;1016;48.770;9.154;2023-08-30T10:10:14;19.00;99.90
2024;DHT22;1016;48.770;9.154;2023-08-30T10:12:41;19.10;99.90
2024;DHT22;1016;48.770;9.154;2023-08-30T10:15:10;19.10;99.90
2024;DHT22;1016;48.770;9.154;2023-08-30T10:17:38;19.10;99.90
2024;DHT22;1016;48.770;9.154;2023-08-30T10:20:04;19.10;99.90
2024;DHT22;1016;48.770;9.154;2023-08-30T10:22:32;19.10;99.90
2024;DHT22;1016;48.770;9.154;2023-08-30T10:25:10;19.20;99.90
2024;DHT22;1016;48.770;9.154;2023-08-30T10:27:39;19.20;99.90
2024;DHT22;1016;48.770;9.154;2023-08-30T10:30:07;19.20;99.90
2024;DHT22;1016;48.770;9.154;2023-08-30T10:32:32;19.20;99.90
2024;DHT22;1016;48.770;9.154;2023-08-30T10:35:03;19.20;99.90
2024;DHT22;1016;48.770;9.154;2023-08-30T10:37:29;19.20;99.90
2024;DHT22;1016;48.770;9.154;2023-08-30T10:40:00;19.20;99.90
2024;DHT22;1016;48.770;9.154;2023-08-30T10:42:29;19.20;99.90
2024;DHT22;1016;48.770;9.154;2023-08-30T10:44:59;19.20;99.90
2024;DHT22;1016;48.770;9.154;2023-08-30T10:47:27;19.30;99.90
2024;DHT22;1016;48.770;9.154;2023-08-30T10:49:55;19.30;99.90
2024;DHT22;1016;48.770;9.154;2023-08-30T10:52:22;19.30;99.90
2024;DHT22;1016;48.770;9.154;2023-08-30T10:54:49;19.30;99.90
2024;DHT22;1016;48.770;9.154;2023-08-30T10:57:19;19.30;99.90
2024;DHT22;1016;48.770;9.154;2023-08-30T11:00:04;19.30;99.90
2024;DHT22;1016;48.770;9.154;2023-08-30T11:02:32;19.40;99.90
2024;DHT22;1016;48.770;9.154;2023-08-30T11:04:59;19.40;99.90
2024;DHT22;1016;48.770;9.154;2023-08-30T11:07:27;19.40;99.90
2024;DHT22;1016;48.770;9.154;2023-08-30T11:09:53;19.40;99.90
2024;DHT22;1016;48.770;9.154;2023-08-30T11:12:19;19.40;99.90
2024;DHT22;1016;48.770;9.154;2023-08-30T11:14:48;19.40;99.90
2024;DHT22;1016;48.770;9.154;2023-08-30T11:17:16;19.40;99.90
2024;DHT22;1016;48.770;9.154;2023-08-30T11:19:42;19.50;99.90
2024;DHT22;1016;48.770;9.154;2023-08-30T11:22:08;19.40;99.90
2024;DHT22;1016;48.770;9.154;2023-08-30T11:24:34;19.50;99.90
2024;DHT22;1016;48.770;9.154;2023-08-30T11:27:00;19.50;99.90
2024;DHT22;1016;48.770;9.154;2023-08-30T11:29:26;19.50;99.90
2024;DHT22;1016;48.770;9.154;2023-08-30T11:31:52;19.50;99.90
2024;DHT22;1016;48.770;9.154;2023-08-30T11:34:20;19.50;99.90
2024;DHT22;1016;48.770;9.154;2023-08-30T11:36:47;19.50;99.90
2024;DHT22;1016;48.770;9.154;2023-08-30T11:39:13;19.60;99.90
2024;DHT22;1016;48.770;9.154;2023-08-30T11:41:39;19.60;99.90
2024;DHT22;1016;48.770;9.154;2023-08-30T11:44:05;19.60;99.90
2024;DHT22;1016;48.770;9.154;2023-08-30T11:46:31;19.60;99.90
2024;DHT22;1016;48.770;9.154;2023-08-30T11:48:57;19.60;99.90
2024;DHT22;1016;48.770;9.154;2023-08-30T11:51:23;19.60;99.90
2024;DHT22;1016;48.770;9.154;2023-08-30T11:53:48;19.60;99.90
2024;DHT22;1016;48.770;9.154;2023-08-30T11:56:15;19.60;99.90
2024;DHT22;1016;48.770;9.154;2023-08-30T11:58:42;19.60;99.90
2024;DHT22;1016;48.770;9.154;2023-08-30T12:01:08;19.50;99.90
2024;DHT22;1016;48.770;9.154;2023-08-30T12:03:34;19.50;99.90
2024;DHT22;1016;48.770;9.154;2023-08-30T12:06:00;19.50;99.90
2024;DHT22;1016;48.770;9.154;2023-08-30T12:08:28;19.60;99.90
2024;DHT22;1016;48.770;9.154;2023-08-30T12:10:55;19.60;99.90
2024;DHT22;1016;48.770;9.154;2023-08-30T12:13:25;19.50;99.90
2024;DHT22;1016;48.770;9.154;2023-08-30T12:15:54;19.50;99.90
2024;DHT22;1016;48.770;9.154;2023-08-30T12:18:23;19.50;99.90
2024;DHT22;1016;48.770;9.154;2023-08-30T12:23:23;19.50;99.90
2024;DHT22;1016;48.770;9.154;2023-08-30T12:26:09;19.50;99.90
2024;DHT22;1016;48.770;9.154;2023-08-30T12:28:39;19.50;99.90
2024;DHT22;1016;48.770;9.154;2023-08-30T12:31:05;19.50;99.90
2024;DHT22;1016;48.770;9.154;2023-08-30T12:33:33;19.50;99.90
2024;DHT22;1016;48.770;9.154;2023-08-30T12:35:59;19.50;99.90
2024;DHT22;1016;48.770;9.154;2023-08-30T12:38:25;19.50;99.90
2024;DHT22;1016;48.770;9.154;2023-08-30T12:40:52;19.50;99.90
2024;DHT22;1016;48.770;9.154;2023-08-30T12:43:18;19.50;99.90
2024;DHT22;1016;48.770;9.154;2023-08-30T12:45:45;19.50;99.90
2024;DHT22;1016;48.770;9.154;2023-08-30T12:48:12;19.50;99.90
2024;DHT22;1016;48.770;9.154;2023-08-30T12:50:39;19.50;99.90
2024;DHT22;1016;48.770;9.154;2023-08-30T12:53:06;19.50;99.90
2024;DHT22;1016;48.770;9.154;2023-08-30T12:55:32;19.50;99.90
2024;DHT22;1016;48.770;9.154;2023-08-30T12:57:57;19.50;99.90
2024;DHT22;1016;48.770;9.154;2023-08-30T13:00:24;19.50;99.90
2024;DHT22;1016;48.770;9.154;2023-08-30T13:02:50;19.50;99.90
2024;DHT22;1016;48.770;9.154;2023-08-30T13:05:16;19.50;99.90
2024;DHT22;1016;48.770;9.154;2023-08-30T13:07:42;19.40;99.90
2024;DHT22;1016;48.770;9.154;2023-08-30T13:10:08;19.40;99.90
2024;DHT22;1016;48.770;9.154;2023-08-30T13:12:34;19.40;99.90
2024;DHT22;1016;48.770;9.154;2023-08-30T13:14:59;19.40;99.90
2024;DHT22;1016;48.770;9.154;2023-08-30T13:17:25;19.40;99.90
2024;DHT22;1016;48.770;9.154;2023-08-30T13:19:50;19.40;99.90
2024;DHT22;1016;48.770;9.154;2023-08-30T13:22:16;19.40;99.90
2024;DHT22;1016;48.770;9.154;2023-08-30T13:24:42;19.40;99.90
2024;DHT22;1016;48.770;9.154;2023-08-30T13:27:07;19.40;99.90
2024;DHT22;1016;48.770;9.154;2023-08-30T13:29:33;19.40;99.90
2024;DHT22;1016;48.770;9.154;2023-08-30T13:31:58;19.40;99.90
2024;DHT22;1016;48.770;9.154;2023-08-30T13:34:24;19.40;99.90
2024;DHT22;1016;48.770;9.154;2023-08-30T13:36:49;19.40;99.90
2024;DHT22;1016;48.770;9.154;2023-08-30T13:39:15;19.40;99.90
2024;DHT22;1016;48.770;9.154;2023-08-30T13:41:41;19.50;99.90
2024;DHT22;1016;48.770;9.154;2023-08-30T13:44:06;19.50;99.90
2024;DHT22;1016;48.770;9.154;2023-08-30T13:46:32;19.50;99.90
2024;DHT22;1016;48.770;9.154;2023-08-30T13:48:58;19.50;99.90
2024;DHT22;1016;48.770;9.154;2023-08-30T13:51:25;19.60;99.90
2024;DHT22;1016;48.770;9.154;2023-08-30T13:53:51;19.60;99.90
2024;DHT22;1016;48.770;9.154;2023-08-30T13:56:17;19.50;99.90
2024;DHT22;1016;48.770;9.154;2023-08-30T13:58:44;19.60;99.90
2024;DHT22;1016;48.770;9.154;2023-08-30T14:01:09;19.60;99.90
2024;DHT22;1016;48.770;9.154;2023-08-30T14:03:35;19.60;99.90
2024;DHT22;1016;48.770;9.154;2023-08-30T14:06:00;19.60;99.90
2024;DHT22;1016;48.770;9.154;2023-08-30T14:08:26;19.60;99.90
2024;DHT22;1016;48.770;9.154;2023-08-30T14:10:51;19.70;99.90
2024;DHT22;1016;48.770;9.154;2023-08-30T14:13:17;19.60;99.90
2024;DHT22;1016;48.770;9.154;2023-08-30T14:15:42;19.70;99.90
2024;DHT22;1016;48.770;9.154;2023-08-30T14:18:08;19.70;99.90
2024;DHT22;1016;48.770;9.154;2023-08-30T14:20:34;19.70;99.90
2024;DHT22;1016;48.770;9.154;2023-08-30T14:23:00;19.70;99.90
2024;DHT22;1016;48.770;9.154;2023-08-30T14:25:25;19.70;99.90
2024;DHT22;1016;48.770;9.154;2023-08-30T14:27:51;19.70;99.90
2024;DHT22;1016;48.770;9.154;2023-08-30T14:30:16;19.70;99.90
2024;DHT22;1016;48.770;9.154;2023-08-30T14:32:42;19.70;99.90
2024;DHT22;1016;48.770;9.154;2023-08-30T14:35:08;19.80;99.90
2024;DHT22;1016;48.770;9.154;2023-08-30T14:37:33;19.80;99.90
2024;DHT22;1016;48.770;9.154;2023-08-30T14:40:02;19.80;99.90
2024;DHT22;1016;48.770;9.154;2023-08-30T14:42:29;19.80;99.90
2024;DHT22;1016;48.770;9.154;2023-08-30T14:44:54;19.80;99.90
2024;DHT22;1016;48.770;9.154;2023-08-30T14:47:20;19.80;99.90
2024;DHT22;1016;48.770;9.154;2023-08-30T14:49:46;19.80;99.90
2024;DHT22;1016;48.770;9.154;2023-08-30T14:52:13;19.80;99.90
2024;DHT22;1016;48.770;9.154;2023-08-30T14:54:38;19.80;99.90
2024;DHT22;1016;48.770;9.154;2023-08-30T14:57:04;19.80;99.90
2024;DHT22;1016;48.770;9.154;2023-08-30T14:59:29;19.80;99.90
2024;DHT22;1016;48.770;9.154;2023-08-30T15:02:01;19.80;99.90
2024;DHT22;1016;48.770;9.154;2023-08-30T15:04:27;19.90;99.90
2024;DHT22;1016;48.770;9.154;2023-08-30T15:06:52;19.90;99.90
2024;DHT22;1016;48.770;9.154;2023-08-30T15:09:18;19.90;99.90
2024;DHT22;1016;48.770;9.154;2023-08-30T15:11:44;19.90;99.90
2024;DHT22;1016;48.770;9.154;2023-08-30T15:14:10;19.90;99.90
2024;DHT22;1016;48.770;9.154;2023-08-30T15:16:36;19.90;99.90
2024;DHT22;1016;48.770;9.154;2023-08-30T15:19:02;19.90;99.90
2024;DHT22;1016;48.770;9.154;2023-08-30T15:21:28;19.90;99.90
2024;DHT22;1016;48.770;9.154;2023-08-30T15:23:54;19.90;99.90
2024;DHT22;1016;48.770;9.154;2023-08-30T15:26:19;19.90;99.90
2024;DHT22;1016;48.770;9.154;2023-08-30T15:28:47;19.90;99.90
2024;DHT22;1016;48.770;9.154;2023-08-30T15:31:13;19.90;99.90
2024;DHT22;1016;48.770;9.154;2023-08-30T15:33:39;19.90;99.90
2024;DHT22;1016;48.770;9.154;2023-08-30T15:36:04;19.90;99.90
2024;DHT22;1016;48.770;9.154;2023-08-30T15:38:30;20.00;99.90
2024;DHT22;1016;48.770;9.154;2023-08-30T15:40:56;19.90;99.90
2024;DHT22;1016;48.770;9.154;2023-08-30T15:43:22;20.00;99.90
2024;DHT22;1016;48.770;9.154;2023-08-30T15:45:47;20.00;99.90
2024;DHT22;1016;48.770;9.154;2023-08-30T15:48:13;20.00;99.90
2024;DHT22;1016;48.770;9.154;2023-08-30T15:50:38;20.00;99.90
2024;DHT22;1016;48.770;9.154;2023-08-30T15:53:04;20.00;99.90
2024;DHT22;1016;48.770;9.154;2023-08-30T15:55:30;20.00;99.90
2024;DHT22;1016;48.770;9.154;2023-08-30T15:57:56;20.00;99.90
2024;DHT22;1016;48.770;9.154;2023-08-30T16:00:22;20.00;99.90
2024;DHT22;1016;48.770;9.154;2023-08-30T16:02:49;20.00;99.90
2024;DHT22;1016;48.770;9.154;2023-08-30T16:05:18;20.00;99.90
2024;DHT22;1016;48.770;9.154;2023-08-30T16:07:43;20.00;99.90
2024;DHT22;1016;48.770;9.154;2023-08-30T16:10:09;20.00;99.90
2024;DHT22;1016;48.770;9.154;2023-08-30T16:12:34;20.00;99.90